LFOH 221130Z AUTO 24018KT 9999 OVC015 10/07 Q1025 TEMPO 22020G30KT 4000 RA OVC011

ElémentsDécodage
LFOH Station météo située sur l'aérodrome de LE-HAVRE Octeville
221130Z émis le 22 du mois à 11h30 UTC
AUTO Bulletin édité par un automate
24018KT vent du 240°, 18 noeuds
9999 visibilité horizontale supérieure à 10 Km
OVC015 couverture nuageuse totale (8/8) à 1500 pieds
10/07 température 10°C, point de rosée 07°C
 soit une humidité relative de 82%
Q1025 la pression au niveau de la mer (QNH) est de 1025 hPa
TEMPO fluctuation temporaire prévue
22020G30KT vent du 220°, moyenne: 20 noeuds, avec rafales à 30 noeuds
4000 visibilité horizontale de 4000 mètres
RA pluie
OVC011 couverture nuageuse totale (8/8) à 1100 pieds